createdAt,value
2023-01-27T05:41:58.656Z,98117.56
2023-01-27T05:47:00.401Z,98126.38
2023-01-27T05:52:02.085Z,98135.28
2023-01-27T05:57:03.684Z,98143.19
2023-01-27T06:02:05.408Z,98157.97
2023-01-27T06:07:07.089Z,98163.25
2023-01-27T06:12:08.738Z,98173.25
2023-01-27T06:17:17.503Z,98178.09
2023-01-27T06:22:20.184Z,98149.41
2023-01-27T06:27:23.859Z,98162.38
2023-01-27T06:32:25.593Z,98180.22
2023-01-27T06:37:29.561Z,98174.09
2023-01-27T06:42:31.831Z,98176.41
2023-01-27T06:47:33.549Z,98150.22
2023-01-27T06:52:35.596Z,98198.78
2023-01-27T06:57:39.373Z,98199.97
2023-01-27T07:02:41.086Z,98213.09
2023-01-27T07:07:42.851Z,98189.56
2023-01-27T07:12:46.372Z,98196.53
2023-01-27T07:17:48.057Z,98217.50
2023-01-27T07:22:49.704Z,98221.03
2023-01-27T07:27:51.487Z,98222.88
2023-01-27T07:32:55.229Z,98235.34
2023-01-27T07:37:58.023Z,98237.50
2023-01-27T07:43:03.414Z,98222.38
2023-01-27T07:48:09.509Z,98237.91
2023-01-27T07:53:11.962Z,98237.38
2023-01-27T07:58:15.573Z,98240.41
2023-01-27T08:03:23.167Z,98243.03
2023-01-27T08:08:24.862Z,98236.97
2023-01-27T08:13:29.340Z,98246.75
2023-01-27T08:18:31.436Z,98239.72
2023-01-27T08:23:35.544Z,98248.78
2023-01-27T08:28:38.873Z,98219.66
2023-01-27T08:33:42.931Z,98246.78
2023-01-27T08:38:45.708Z,98242.53
2023-01-27T08:43:49.473Z,98240.84
2023-01-27T08:48:51.889Z,98241.19
2023-01-27T08:53:53.721Z,98226.38
2023-01-27T08:58:56.956Z,98250.16
2023-01-27T09:03:58.664Z,98250.94
2023-01-27T09:09:11.769Z,98243.28
2023-01-27T09:14:14.154Z,98262.16
2023-01-27T09:19:16.008Z,98259.25
2023-01-27T09:24:19.432Z,98265.13
2023-01-27T09:29:21.350Z,98261.63
2023-01-27T09:34:29.823Z,98278.22
2023-01-27T09:39:32.538Z,98282.16
2023-01-27T09:45:07.865Z,98283.91
2023-01-27T09:50:32.913Z,98279.84
2023-01-27T09:55:45.994Z,98281.56
2023-01-27T10:01:04.763Z,98276.25
2023-01-27T10:06:35.009Z,98253.25
2023-01-27T10:11:45.522Z,98267.53
2023-01-27T10:17:14.118Z,98273.31
2023-01-27T10:22:25.174Z,98268.13
2023-01-27T10:27:39.964Z,98270.69
2023-01-27T10:32:47.599Z,98263.41
2023-01-27T10:38:07.573Z,98265.28
2023-01-27T10:43:25.126Z,98260.28
2023-01-27T10:48:46.615Z,98253.56
2023-01-27T10:54:01.482Z,98249.03
2023-01-27T10:59:26.631Z,98246.06
2023-01-27T11:04:37.649Z,98211.97
2023-01-27T11:09:49.280Z,98238.41
2023-01-27T11:14:53.031Z,98236.22
2023-01-27T11:20:30.962Z,98239.94
2023-01-27T11:26:28.462Z,98218.38
2023-01-27T11:31:57.071Z,98242.22
2023-01-27T11:37:00.134Z,98232.84
2023-01-27T11:42:01.916Z,98232.53
2023-01-27T11:47:07.627Z,98234.06
2023-01-27T11:52:15.595Z,98182.50
2023-01-27T11:57:23.224Z,98231.09
2023-01-27T12:02:44.726Z,98220.41
2023-01-27T12:07:54.581Z,98220.16
2023-01-27T12:13:01.633Z,98216.06
2023-01-27T12:18:16.800Z,98215.16
2023-01-27T12:23:26.803Z,98206.75
2023-01-27T12:28:40.370Z,98203.03
2023-01-27T12:33:49.486Z,98205.19
2023-01-27T12:39:00.291Z,98209.88
2023-01-27T12:44:15.528Z,98195.69
2023-01-27T12:49:21.453Z,98189.22
2023-01-27T12:54:32.474Z,98198.13
2023-01-27T12:59:34.447Z,98194.63
2023-01-27T13:04:37.488Z,98192.63
2023-01-27T13:10:03.251Z,98203.59
2023-01-27T13:15:07.269Z,98186.06
2023-01-27T13:20:34.876Z,98200.19
2023-01-27T13:26:04.417Z,98200.66
2023-01-27T13:31:12.433Z,98207.72
2023-01-27T13:36:20.168Z,98206.59
2023-01-27T13:41:31.553Z,98212.16
2023-01-27T13:46:38.554Z,98204.31
2023-01-27T13:51:40.365Z,98201.72
2023-01-27T13:57:02.135Z,98226.69
2023-01-27T14:02:03.857Z,98226.00
2023-01-27T14:07:25.776Z,98230.25
2023-01-27T14:12:47.968Z,98228.56
2023-01-27T14:18:12.372Z,98230.25
2023-01-27T14:23:38.145Z,98226.56
2023-01-27T14:29:02.191Z,98233.81
2023-01-27T14:34:31.735Z,98228.56
2023-01-27T14:39:42.336Z,98233.88
2023-01-27T14:45:06.191Z,98224.81
2023-01-27T14:50:38.514Z,98224.06
2023-01-27T14:55:46.170Z,98220.72
2023-01-27T15:01:09.687Z,98221.47
2023-01-27T15:06:57.280Z,98230.13
2023-01-27T15:12:18.145Z,98229.75
2023-01-27T15:17:40.416Z,98224.25
2023-01-27T15:23:04.150Z,98237.34
2023-01-27T15:28:11.697Z,98228.66
2023-01-27T15:33:51.328Z,98240.22
2023-01-27T15:39:25.838Z,98246.06
2023-01-27T15:44:33.468Z,98245.47
2023-01-27T15:49:43.286Z,98265.25
2023-01-27T15:54:50.331Z,98257.19
2023-01-27T15:59:59.044Z,98267.34
2023-01-27T16:05:09.644Z,98268.03
2023-01-27T16:10:27.273Z,98277.59
2023-01-27T16:15:36.437Z,98275.03
2023-01-27T16:20:42.437Z,98275.28
2023-01-27T16:26:12.412Z,98286.94
2023-01-27T16:31:29.204Z,98287.13
2023-01-27T16:36:34.892Z,98286.66
2023-01-27T16:41:41.286Z,98275.25
2023-01-27T16:46:47.288Z,98290.53
2023-01-27T16:51:58.787Z,98295.66
2023-01-27T16:57:11.144Z,98296.25
2023-01-27T17:02:21.791Z,98291.59
2023-01-27T17:07:27.902Z,98289.88
2023-01-27T17:12:46.107Z,98304.84
2023-01-27T17:17:51.820Z,98311.09
2023-01-27T17:22:57.780Z,98302.19
2023-01-27T17:28:01.257Z,98300.00
2023-01-27T17:33:07.204Z,98304.44
2023-01-27T17:38:24.675Z,98303.50
2023-01-27T17:43:37.705Z,98314.72
2023-01-27T17:48:42.191Z,98321.06
2023-01-27T17:53:44.491Z,98325.53
2023-01-27T17:58:54.689Z,98323.81
2023-01-27T18:03:58.275Z,98318.28
2023-01-27T18:09:14.630Z,98340.44
2023-01-27T18:14:21.841Z,98351.53
2023-01-27T18:19:27.921Z,98354.16
2023-01-27T18:24:29.779Z,98365.69
2023-01-27T18:34:58.280Z,98343.41
2023-01-27T18:40:01.931Z,98373.50
2023-01-27T18:45:03.936Z,98289.09
2023-01-27T18:50:11.370Z,98379.13
2023-01-27T18:55:26.956Z,98386.38
2023-01-27T19:00:37.571Z,98358.56
2023-01-27T19:05:40.520Z,98368.06
2023-01-27T19:10:42.549Z,98361.19
2023-01-27T19:15:50.358Z,98395.56
2023-01-27T19:20:52.389Z,98399.38
2023-01-27T19:25:57.299Z,98337.41
2023-01-27T19:31:00.345Z,98407.47
2023-01-27T19:36:20.931Z,98411.63
2023-01-27T19:41:22.750Z,98420.44
2023-01-27T19:46:24.705Z,98424.00
2023-01-27T19:51:27.108Z,98417.03
2023-01-27T19:56:31.904Z,98430.91
2023-01-27T20:01:33.636Z,98437.59
2023-01-27T20:06:35.376Z,98442.50
2023-01-27T20:11:39.694Z,98446.00
2023-01-27T20:16:42.988Z,98447.16
2023-01-27T20:21:46.269Z,98459.63
2023-01-27T20:26:48.109Z,98450.22
2023-01-27T20:31:50.024Z,98452.44
2023-01-27T20:36:51.754Z,98445.69
2023-01-27T20:41:53.457Z,98447.63
2023-01-27T20:46:55.183Z,98412.72
2023-01-27T20:51:57.131Z,98425.19
2023-01-27T20:56:58.802Z,98449.34
2023-01-27T21:02:00.607Z,98429.66
2023-01-27T21:07:02.435Z,98424.91
2023-01-27T21:12:04.210Z,98414.78
2023-01-27T21:17:05.914Z,98430.13
2023-01-27T21:22:07.617Z,98405.56
2023-01-27T21:27:09.287Z,98432.97
2023-01-27T21:33:29.449Z,98432.53
2023-01-27T21:38:32.527Z,98437.31
2023-01-27T21:43:52.626Z,98440.88
2023-01-27T21:48:54.282Z,98421.44
2023-01-27T21:53:55.951Z,98445.69
2023-01-27T21:58:57.654Z,98423.13
2023-01-27T22:03:59.438Z,98456.31
2023-01-27T22:09:01.154Z,98456.44
2023-01-27T22:14:02.779Z,98430.72
2023-01-27T22:19:04.431Z,98453.59
2023-01-27T22:24:06.558Z,98432.53
2023-01-27T22:29:08.258Z,98434.72
2023-01-27T22:34:10.542Z,98422.22
2023-01-27T22:39:12.197Z,98442.66
2023-01-27T22:44:14.440Z,98447.69
2023-01-27T22:49:16.332Z,98450.28
2023-01-27T22:54:18.022Z,98437.56
2023-01-27T22:59:19.672Z,98445.13
2023-01-27T23:04:21.327Z,98441.78
2023-01-27T23:09:22.933Z,98445.25
2023-01-27T23:14:24.563Z,98433.22
2023-01-27T23:19:26.197Z,98455.41
2023-01-27T23:24:28.072Z,98454.41
2023-01-27T23:29:29.747Z,98443.44
2023-01-27T23:34:31.449Z,98453.25
2023-01-27T23:39:33.242Z,98452.91
